createdAt,value
2019-04-25T00:02:02.015Z,69.25
2019-04-25T00:04:28.106Z,68.93
2019-04-25T00:06:53.888Z,68.75
2019-04-25T00:09:22.026Z,68.57
2019-04-25T00:11:48.932Z,68.42
2019-04-25T00:14:15.265Z,68.10
2019-04-25T00:16:44.057Z,68.08
2019-04-25T00:19:09.953Z,67.93
2019-04-25T00:21:42.199Z,67.84
2019-04-25T00:24:12.837Z,67.83
2019-04-25T00:26:44.401Z,67.68
2019-04-25T00:29:10.978Z,67.81
2019-04-25T00:31:36.766Z,67.80
2019-04-25T00:34:02.965Z,67.91
2019-04-25T00:36:28.750Z,68.05
2019-04-25T00:38:54.536Z,68.22
2019-04-25T00:41:21.331Z,68.52
2019-04-25T00:43:47.473Z,68.42
2019-04-25T00:46:13.288Z,68.49
2019-04-25T00:48:39.079Z,67.98
2019-04-25T00:51:04.855Z,67.42
2019-04-25T00:53:32.260Z,67.43
2019-04-25T00:55:58.142Z,67.92
2019-04-25T00:58:37.484Z,68.24
2019-04-25T01:01:17.062Z,68.48
2019-04-25T01:03:44.144Z,69.07
2019-04-25T01:06:12.015Z,69.21
2019-04-25T01:08:37.855Z,69.98
2019-04-25T01:11:03.643Z,69.84
2019-04-25T01:13:29.570Z,69.90
2019-04-25T01:15:55.688Z,70.14
2019-04-25T01:18:23.041Z,70.48
2019-04-25T01:20:49.555Z,71.00
2019-04-25T01:23:15.601Z,71.72
2019-04-25T01:25:44.275Z,71.96
2019-04-25T01:28:09.071Z,72.21
2019-04-25T01:30:34.869Z,73.01
2019-04-25T01:33:00.764Z,72.83
2019-04-25T01:35:28.499Z,73.09
2019-04-25T01:38:04.774Z,73.29
2019-04-25T01:40:49.506Z,73.42
2019-04-25T01:43:35.332Z,73.42
2019-04-25T01:46:03.248Z,73.92
2019-04-25T01:48:29.152Z,73.95
2019-04-25T01:50:55.475Z,74.33
2019-04-25T01:53:21.527Z,74.65
2019-04-25T01:55:56.126Z,74.79
2019-04-25T01:58:15.003Z,74.36
2019-04-25T02:00:48.235Z,74.33
2019-04-25T02:03:14.018Z,74.50
2019-04-25T02:05:39.804Z,75.83
2019-04-25T02:08:06.926Z,75.37
2019-04-25T02:10:34.432Z,75.58
2019-04-25T02:13:07.769Z,75.15
2019-04-25T02:15:33.632Z,75.88
2019-04-25T02:18:00.350Z,75.95
2019-04-25T02:20:26.431Z,77.79
2019-04-25T02:22:52.314Z,78.68
2019-04-25T02:25:18.538Z,80.05
2019-04-25T02:27:44.311Z,80.60
2019-04-25T02:30:11.391Z,80.97
2019-04-25T02:32:37.431Z,81.03
2019-04-25T02:35:09.076Z,80.99
2019-04-25T02:37:34.952Z,81.70
2019-04-25T02:40:01.705Z,81.59
2019-04-25T02:42:28.074Z,81.63
2019-04-25T02:44:57.886Z,81.53
2019-04-25T02:47:28.259Z,82.11
2019-04-25T02:49:58.406Z,81.92
2019-04-25T02:52:25.564Z,82.61
2019-04-25T02:54:51.346Z,82.81
2019-04-25T02:57:17.136Z,82.81
2019-04-25T02:59:44.831Z,82.54
2019-04-25T03:02:10.717Z,82.10
2019-04-25T03:04:36.506Z,82.31
2019-04-25T03:07:07.185Z,82.31
2019-04-25T03:09:30.191Z,82.34
2019-04-25T03:11:58.228Z,82.79
2019-04-25T03:14:24.738Z,82.78
2019-04-25T03:16:51.431Z,82.99
2019-04-25T03:19:35.385Z,83.04
2019-04-25T03:22:10.080Z,82.96
2019-04-25T03:24:35.278Z,82.84
2019-04-25T03:27:01.091Z,82.71
2019-04-25T03:29:26.878Z,83.07
2019-04-25T03:31:55.626Z,82.77
2019-04-25T03:34:20.953Z,83.03
2019-04-25T03:36:46.846Z,83.19
2019-04-25T03:39:14.481Z,83.37
2019-04-25T03:41:40.333Z,83.00
2019-04-25T03:44:06.494Z,83.24
2019-04-25T03:46:33.398Z,83.21
2019-04-25T03:48:59.240Z,82.95
2019-04-25T03:51:25.029Z,83.12
2019-04-25T03:53:50.833Z,82.66
2019-04-25T03:56:16.660Z,82.40
2019-04-25T03:58:43.962Z,82.30
2019-04-25T04:01:09.852Z,82.30
2019-04-25T04:03:35.661Z,82.21
2019-04-25T04:06:01.448Z,81.60
2019-04-25T04:08:27.248Z,81.60
2019-04-25T04:10:54.344Z,81.82
2019-04-25T04:13:20.240Z,81.71
2019-04-25T04:15:46.018Z,81.73
2019-04-25T04:18:17.270Z,81.78
2019-04-25T04:21:01.336Z,81.60
2019-04-25T04:23:34.962Z,81.26
2019-04-25T04:26:06.322Z,81.33
2019-04-25T04:28:33.652Z,81.34
2019-04-25T04:30:59.501Z,80.95
2019-04-25T04:33:31.833Z,80.98
2019-04-25T04:35:54.340Z,80.68
2019-04-25T04:38:20.157Z,80.83
2019-04-25T04:40:45.957Z,80.96
2019-04-25T04:43:11.795Z,80.75
2019-04-25T04:45:37.531Z,80.74
2019-04-25T04:48:03.365Z,80.22
2019-04-25T04:50:29.145Z,79.93
2019-04-25T04:52:54.946Z,79.71
2019-04-25T04:55:20.758Z,79.74
2019-04-25T04:57:46.550Z,79.75
2019-04-25T05:00:14.276Z,79.83
2019-04-25T05:02:47.476Z,79.65
2019-04-25T05:05:34.305Z,79.81
2019-04-25T05:08:04.734Z,79.64
2019-04-25T05:10:30.550Z,79.05
2019-04-25T05:12:56.349Z,79.14
2019-04-25T05:15:24.523Z,79.71
2019-04-25T05:17:49.861Z,80.24
2019-04-25T05:20:17.306Z,80.64
2019-04-25T05:22:44.539Z,81.19
2019-04-25T05:25:10.641Z,80.51
2019-04-25T05:27:50.708Z,80.81
2019-04-25T05:30:05.814Z,80.98
2019-04-25T05:32:31.647Z,80.91
2019-04-25T05:34:57.402Z,80.94
2019-04-25T05:37:24.043Z,81.07
2019-04-25T05:39:50.880Z,80.27
2019-04-25T05:42:18.584Z,81.16
2019-04-25T05:44:44.389Z,80.42
2019-04-25T05:47:10.200Z,80.42
2019-04-25T05:49:35.974Z,79.98
2019-04-25T05:52:01.768Z,79.14
2019-04-25T05:54:27.551Z,78.40
2019-04-25T05:56:53.805Z,78.99
2019-04-25T05:59:19.626Z,79.05
2019-04-25T06:01:45.413Z,78.19
2019-04-25T06:04:11.202Z,77.99
2019-04-25T06:06:37.019Z,77.39
2019-04-25T06:09:09.972Z,76.94
2019-04-25T06:11:40.429Z,76.55
2019-04-25T06:14:08.129Z,76.83
2019-04-25T06:16:34.044Z,76.68
2019-04-25T06:19:12.954Z,76.01
2019-04-25T06:21:29.433Z,76.22
2019-04-25T06:24:13.544Z,75.50
2019-04-25T06:26:41.267Z,75.00
2019-04-25T06:29:07.058Z,74.01
2019-04-25T06:31:34.176Z,72.92
2019-04-25T06:34:00.043Z,74.20
2019-04-25T06:36:25.824Z,73.30
2019-04-25T06:38:51.608Z,73.55
2019-04-25T06:41:17.390Z,73.59
2019-04-25T06:43:45.087Z,73.91
2019-04-25T06:46:15.337Z,73.56
2019-04-25T06:48:45.229Z,73.30
2019-04-25T06:51:10.939Z,71.96
2019-04-25T06:53:36.728Z,71.04
2019-04-25T06:56:03.503Z,72.02
2019-04-25T06:58:30.136Z,72.73
2019-04-25T07:01:00.652Z,71.91
2019-04-25T07:03:25.165Z,69.29
2019-04-25T07:05:51.361Z,70.46
2019-04-25T07:08:17.159Z,70.45
2019-04-25T07:10:44.589Z,69.30
2019-04-25T07:13:10.544Z,68.59
2019-04-25T07:15:36.324Z,68.61
2019-04-25T07:18:03.755Z,69.99
2019-04-25T07:20:30.237Z,71.36
2019-04-25T07:22:56.042Z,70.01
2019-04-25T07:25:26.312Z,68.39
2019-04-25T07:27:53.581Z,67.36
2019-04-25T07:30:31.912Z,65.82
2019-04-25T07:33:03.865Z,65.92
2019-04-25T07:35:29.717Z,65.22
2019-04-25T07:37:55.556Z,63.85
2019-04-25T07:40:21.670Z,61.40
2019-04-25T07:42:47.459Z,59.41
2019-04-25T07:45:15.187Z,59.09
2019-04-25T07:47:41.052Z,58.45
2019-04-25T07:50:07.332Z,58.58
2019-04-25T07:52:34.336Z,58.76
2019-04-25T07:55:00.629Z,57.80
2019-04-25T07:57:26.959Z,57.58
2019-04-25T07:59:53.814Z,55.90
2019-04-25T08:02:19.657Z,54.90
2019-04-25T08:04:45.524Z,53.85
2019-04-25T08:07:11.401Z,53.08
2019-04-25T08:09:37.981Z,52.98
2019-04-25T08:12:03.886Z,52.26
2019-04-25T08:14:32.068Z,53.39
2019-04-25T08:17:00.185Z,50.90
2019-04-25T08:19:26.100Z,51.61
2019-04-25T08:21:53.747Z,50.81
2019-04-25T08:24:19.962Z,49.33
2019-04-25T08:26:45.793Z,49.03
2019-04-25T08:29:12.917Z,49.33
2019-04-25T08:31:39.476Z,48.57
2019-04-25T08:34:05.246Z,48.63
2019-04-25T08:36:31.223Z,49.06
2019-04-25T08:38:57.011Z,47.06
2019-04-25T08:41:23.892Z,46.33
2019-04-25T08:43:49.732Z,46.97
2019-04-25T08:46:15.509Z,47.34
2019-04-25T08:49:02.369Z,48.80
2019-04-25T08:51:36.506Z,47.05
2019-04-25T08:54:04.287Z,46.18
2019-04-25T08:56:33.909Z,44.77
2019-04-25T08:59:07.938Z,45.14
2019-04-25T09:01:38.942Z,43.87
2019-04-25T09:04:05.151Z,44.00
2019-04-25T09:06:31.762Z,44.60
2019-04-25T09:08:58.620Z,44.07
2019-04-25T09:11:24.550Z,45.15
2019-04-25T09:13:50.299Z,44.86
2019-04-25T09:16:16.084Z,44.29
2019-04-25T09:18:41.870Z,43.52
2019-04-25T09:21:07.664Z,41.33
2019-04-25T09:23:36.204Z,40.97
2019-04-25T09:26:01.176Z,40.93
2019-04-25T09:28:26.954Z,40.38
2019-04-25T09:30:53.993Z,41.88
2019-04-25T09:33:20.068Z,41.46
2019-04-25T09:35:46.133Z,39.95
2019-04-25T09:38:13.318Z,40.24
2019-04-25T09:40:39.528Z,40.48
2019-04-25T09:43:05.335Z,40.70
2019-04-25T09:45:36.110Z,40.17
2019-04-25T09:48:04.691Z,38.79
2019-04-25T09:50:45.155Z,39.37
2019-04-25T09:53:21.888Z,38.51
2019-04-25T09:55:44.093Z,38.91
2019-04-25T09:58:17.967Z,39.13
2019-04-25T10:01:00.877Z,39.02
2019-04-25T10:03:26.763Z,37.91
2019-04-25T10:05:52.548Z,38.01
2019-04-25T10:08:18.337Z,39.45
2019-04-25T10:10:44.637Z,39.10
2019-04-25T10:13:10.594Z,38.49
2019-04-25T10:15:49.257Z,36.22
2019-04-25T10:18:15.059Z,36.56
2019-04-25T10:20:41.196Z,36.31
2019-04-25T10:23:08.164Z,35.80
2019-04-25T10:25:33.971Z,35.40
2019-04-25T10:27:59.765Z,35.57
2019-04-25T10:30:26.062Z,36.53
2019-04-25T10:32:53.185Z,36.53
2019-04-25T10:35:19.616Z,37.55
2019-04-25T10:37:46.496Z,38.28
2019-04-25T10:40:13.430Z,38.41
2019-04-25T10:42:40.602Z,37.28
2019-04-25T10:45:06.710Z,36.28
2019-04-25T10:47:33.468Z,34.31
2019-04-25T10:50:00.199Z,34.16
2019-04-25T10:52:26.073Z,35.14
2019-04-25T10:54:52.616Z,35.42
2019-04-25T10:57:22.441Z,35.83
2019-04-25T11:00:00.747Z,36.18
2019-04-25T11:02:16.100Z,34.12
2019-04-25T11:04:44.582Z,35.56
2019-04-25T11:07:11.506Z,33.35
2019-04-25T11:09:37.297Z,35.21
2019-04-25T11:12:04.581Z,35.01
2019-04-25T11:14:30.568Z,33.76
2019-04-25T11:16:56.476Z,33.53
2019-04-25T11:19:23.841Z,34.94
2019-04-25T11:21:49.723Z,34.28
2019-04-25T11:24:15.527Z,34.14
2019-04-25T11:26:41.528Z,34.25
2019-04-25T11:29:07.400Z,34.74
2019-04-25T11:31:35.081Z,33.99
2019-04-25T11:34:01.346Z,34.11
2019-04-25T11:36:27.159Z,34.71
2019-04-25T11:38:54.953Z,33.62
2019-04-25T11:41:24.155Z,33.87
2019-04-25T11:43:50.739Z,34.90
2019-04-25T11:46:16.853Z,33.70
2019-04-25T11:48:44.194Z,35.86
2019-04-25T11:51:10.521Z,35.37
2019-04-25T11:53:36.291Z,34.92
2019-04-25T11:56:03.631Z,34.17
2019-04-25T11:58:29.662Z,32.62
2019-04-25T12:00:57.921Z,31.95
2019-04-25T12:03:24.588Z,32.06
2019-04-25T12:05:50.991Z,33.41
2019-04-25T12:08:16.928Z,33.59
2019-04-25T12:10:45.412Z,33.62
2019-04-25T12:13:10.516Z,31.44
2019-04-25T12:15:36.328Z,31.98
2019-04-25T12:18:02.117Z,31.39
2019-04-25T12:20:27.939Z,31.87
2019-04-25T12:23:05.613Z,31.30
2019-04-25T12:25:21.432Z,32.30
2019-04-25T12:27:48.659Z,32.06
2019-04-25T12:30:15.131Z,33.18
2019-04-25T12:32:41.243Z,32.94
2019-04-25T12:35:07.265Z,33.73
2019-04-25T12:37:33.727Z,32.45
2019-04-25T12:39:59.534Z,34.00
2019-04-25T12:42:25.325Z,32.49
2019-04-25T12:45:04.925Z,32.75
2019-04-25T12:47:34.259Z,30.45
2019-04-25T12:50:00.206Z,30.53
2019-04-25T12:52:25.998Z,30.98
2019-04-25T12:54:51.807Z,31.71
2019-04-25T12:57:18.017Z,32.50
2019-04-25T12:59:45.165Z,32.13
2019-04-25T13:02:10.998Z,31.65
2019-04-25T13:04:36.778Z,31.13
2019-04-25T13:07:04.058Z,31.34
2019-04-25T13:09:30.463Z,30.78
2019-04-25T13:11:56.259Z,31.45
2019-04-25T13:14:22.990Z,31.61
2019-04-25T13:16:48.959Z,31.87
2019-04-25T13:19:21.778Z,31.48
2019-04-25T13:21:43.276Z,31.51
2019-04-25T13:24:10.452Z,30.81
2019-04-25T13:26:38.210Z,30.63
2019-04-25T13:29:06.738Z,30.48
2019-04-25T13:31:50.674Z,30.68
2019-04-25T13:34:18.374Z,31.06
2019-04-25T13:36:44.406Z,30.58
2019-04-25T13:39:13.234Z,31.10
2019-04-25T13:41:39.865Z,30.83
2019-04-25T13:44:05.661Z,30.42
2019-04-25T13:46:32.630Z,30.13
2019-04-25T13:48:59.160Z,29.83
2019-04-25T13:51:25.045Z,30.45
2019-04-25T13:53:50.835Z,31.06
2019-04-25T13:56:16.908Z,31.99
2019-04-25T13:58:44.180Z,30.37
2019-04-25T14:01:15.109Z,31.18
2019-04-25T14:03:39.764Z,29.63
2019-04-25T14:06:05.945Z,30.48
2019-04-25T14:08:33.391Z,31.10
2019-04-25T14:10:59.313Z,31.87
2019-04-25T14:13:26.313Z,32.19
2019-04-25T14:16:03.555Z,32.71
2019-04-25T14:18:49.154Z,32.69
2019-04-25T14:21:19.195Z,33.27
2019-04-25T14:23:45.002Z,34.75
2019-04-25T14:26:11.188Z,33.82
2019-04-25T14:28:36.982Z,33.89
2019-04-25T14:31:03.767Z,33.81
2019-04-25T14:33:30.587Z,33.19
2019-04-25T14:35:56.457Z,34.52
2019-04-25T14:38:24.367Z,34.04
2019-04-25T14:40:49.930Z,33.86
2019-04-25T14:43:15.723Z,34.50
2019-04-25T14:45:44.988Z,33.52
2019-04-25T14:48:09.326Z,33.65
2019-04-25T14:50:36.145Z,33.64
2019-04-25T14:53:01.898Z,33.67
2019-04-25T14:55:41.262Z,33.24
2019-04-25T14:58:08.962Z,33.52
2019-04-25T15:00:36.662Z,33.46
2019-04-25T15:03:02.833Z,33.33
2019-04-25T15:05:28.623Z,33.48
2019-04-25T15:07:54.465Z,33.87
2019-04-25T15:10:20.345Z,33.58
2019-04-25T15:12:46.499Z,32.86
2019-04-25T15:15:12.419Z,33.79
2019-04-25T15:17:46.222Z,33.79
2019-04-25T15:20:06.129Z,33.44
2019-04-25T15:22:34.674Z,33.08
2019-04-25T15:25:00.790Z,33.41
2019-04-25T15:27:26.593Z,33.43
2019-04-25T15:29:52.484Z,33.96
2019-04-25T15:32:20.183Z,34.59
2019-04-25T15:34:50.461Z,33.71
2019-04-25T15:37:18.141Z,33.64
2019-04-25T15:39:45.856Z,34.73
2019-04-25T15:42:29.959Z,33.88
2019-04-25T15:44:57.650Z,32.83
2019-04-25T15:47:26.410Z,33.19
2019-04-25T15:49:52.775Z,33.92
2019-04-25T15:52:20.525Z,32.64
2019-04-25T15:54:46.319Z,33.00
2019-04-25T15:57:12.430Z,33.14
2019-04-25T15:59:38.220Z,32.75
2019-04-25T16:02:08.226Z,32.77
2019-04-25T16:04:34.535Z,32.36
2019-04-25T16:07:00.349Z,32.36
2019-04-25T16:09:26.787Z,33.02
2019-04-25T16:11:53.517Z,32.82
2019-04-25T16:14:19.296Z,33.16
2019-04-25T16:16:45.094Z,33.45
2019-04-25T16:19:10.869Z,33.06
2019-04-25T16:21:37.679Z,33.42
2019-04-25T16:24:03.866Z,33.44
2019-04-25T16:26:29.671Z,33.35
2019-04-25T16:28:55.448Z,33.37
2019-04-25T16:31:23.164Z,33.42
2019-04-25T16:33:49.154Z,33.10
2019-04-25T16:36:15.079Z,33.37
2019-04-25T16:38:41.093Z,33.71
2019-04-25T16:41:07.051Z,33.29
2019-04-25T16:43:35.245Z,33.49
2019-04-25T16:46:01.047Z,34.14
2019-04-25T16:48:26.829Z,33.65
2019-04-25T16:50:52.620Z,34.29
2019-04-25T16:53:18.418Z,33.46
2019-04-25T16:55:44.248Z,34.06
2019-04-25T16:58:10.261Z,34.85
2019-04-25T17:00:38.351Z,35.56
2019-04-25T17:03:04.157Z,35.83
2019-04-25T17:05:32.421Z,36.41
2019-04-25T17:07:58.258Z,36.37
2019-04-25T17:10:24.225Z,36.29
2019-04-25T17:12:50.019Z,36.25
2019-04-25T17:15:32.352Z,36.61
2019-04-25T17:18:08.832Z,36.68
2019-04-25T17:20:36.777Z,37.21
2019-04-25T17:23:02.704Z,37.34
2019-04-25T17:25:28.592Z,37.39
2019-04-25T17:27:54.381Z,37.54
2019-04-25T17:30:20.394Z,37.75
2019-04-25T17:32:53.962Z,37.69
2019-04-25T17:35:29.398Z,37.67
2019-04-25T17:38:02.708Z,38.22
2019-04-25T17:40:32.823Z,38.81
2019-04-25T17:43:10.470Z,39.22
2019-04-25T17:45:29.126Z,39.44
2019-04-25T17:47:55.134Z,39.67
2019-04-25T17:50:20.913Z,40.24
2019-04-25T17:52:46.721Z,40.23
2019-04-25T17:55:12.525Z,40.38
2019-04-25T17:57:38.346Z,40.47
2019-04-25T18:00:09.282Z,40.60
2019-04-25T18:02:35.105Z,41.02
2019-04-25T18:05:00.905Z,41.43
2019-04-25T18:07:26.682Z,41.57
2019-04-25T18:09:52.470Z,42.06
2019-04-25T18:12:18.341Z,41.92
2019-04-25T18:14:44.705Z,42.57
2019-04-25T18:17:10.483Z,42.89
2019-04-25T18:19:38.575Z,43.23
2019-04-25T18:22:09.158Z,43.51
2019-04-25T18:24:45.539Z,44.02
2019-04-25T18:27:13.223Z,44.09
2019-04-25T18:29:39.487Z,44.60
2019-04-25T18:32:05.309Z,45.11
2019-04-25T18:34:38.817Z,45.38
2019-04-25T18:37:06.516Z,45.51
2019-04-25T18:39:34.234Z,46.21
2019-04-25T18:42:04.505Z,46.91
2019-04-25T18:44:30.292Z,47.46
2019-04-25T18:46:56.089Z,47.60
2019-04-25T18:49:21.909Z,48.13
2019-04-25T18:51:56.430Z,49.18
2019-04-25T18:54:24.274Z,49.09
2019-04-25T18:57:00.929Z,49.88
2019-04-25T18:59:38.684Z,49.98
2019-04-25T19:02:16.155Z,50.61
2019-04-25T19:04:52.456Z,50.88
2019-04-25T19:07:22.622Z,51.49
2019-04-25T19:09:47.055Z,51.90
2019-04-25T19:12:12.959Z,52.27
2019-04-25T19:14:39.912Z,52.36
2019-04-25T19:17:07.944Z,52.84
2019-04-25T19:19:33.746Z,53.15
2019-04-25T19:21:59.556Z,53.33
2019-04-25T19:24:25.375Z,53.68
2019-04-25T19:26:52.218Z,54.13
2019-04-25T19:29:18.069Z,53.77
2019-04-25T19:31:44.304Z,54.18
2019-04-25T19:34:10.149Z,53.96
2019-04-25T19:36:35.939Z,54.65
2019-04-25T19:39:02.018Z,54.72
2019-04-25T19:41:29.714Z,54.94
2019-04-25T19:43:57.437Z,54.95
2019-04-25T19:46:27.898Z,55.44
2019-04-25T19:48:53.738Z,55.35
2019-04-25T19:51:19.535Z,55.65
2019-04-25T19:53:45.338Z,55.34
2019-04-25T19:56:11.165Z,55.66
2019-04-25T19:58:36.955Z,55.89
2019-04-25T20:01:03.749Z,56.03
2019-04-25T20:03:31.425Z,56.20
2019-04-25T20:06:15.554Z,56.92
2019-04-25T20:08:49.059Z,56.97
2019-04-25T20:11:19.554Z,57.24
2019-04-25T20:13:45.459Z,57.50
2019-04-25T20:16:11.530Z,57.89
2019-04-25T20:18:37.314Z,58.44
2019-04-25T20:21:03.123Z,58.53
2019-04-25T20:23:28.930Z,58.53
2019-04-25T20:25:57.099Z,58.85
2019-04-25T20:28:22.508Z,59.12
2019-04-25T20:30:48.548Z,59.29
2019-04-25T20:33:14.385Z,59.49
2019-04-25T20:35:40.166Z,59.35
2019-04-25T20:38:05.954Z,59.76
2019-04-25T20:40:31.737Z,60.23
2019-04-25T20:42:57.532Z,60.34
2019-04-25T20:45:23.345Z,60.86
2019-04-25T20:47:50.018Z,61.21
2019-04-25T20:50:15.828Z,61.33
2019-04-25T20:52:41.618Z,61.33
2019-04-25T20:55:07.496Z,61.56
2019-04-25T20:57:34.606Z,61.45
2019-04-25T21:00:00.386Z,61.73
2019-04-25T21:02:26.182Z,62.14
2019-04-25T21:04:52.180Z,62.45
2019-04-25T21:07:18.208Z,62.64
2019-04-25T21:09:44.265Z,62.72
2019-04-25T21:12:10.050Z,62.85
2019-04-25T21:14:37.891Z,62.83
2019-04-25T21:17:21.757Z,62.91
2019-04-25T21:19:50.472Z,62.86
2019-04-25T21:22:17.333Z,62.87
2019-04-25T21:24:43.132Z,62.95
2019-04-25T21:27:09.100Z,63.21
2019-04-25T21:29:34.996Z,63.08
2019-04-25T21:32:01.115Z,63.20
2019-04-25T21:34:29.882Z,63.32
2019-04-25T21:36:55.507Z,63.39
2019-04-25T21:39:40.733Z,63.69
2019-04-25T21:42:10.120Z,63.67
2019-04-25T21:44:36.161Z,63.94
2019-04-25T21:47:02.006Z,63.93
2019-04-25T21:49:28.818Z,63.97
2019-04-25T21:51:55.080Z,64.08
2019-04-25T21:54:21.184Z,64.25
2019-04-25T21:56:47.197Z,64.34
2019-04-25T21:59:13.276Z,64.70
2019-04-25T22:01:40.886Z,64.64
2019-04-25T22:04:06.847Z,64.66
2019-04-25T22:06:33.020Z,64.91
2019-04-25T22:08:58.811Z,64.81
2019-04-25T22:11:24.870Z,64.73
2019-04-25T22:13:51.042Z,64.48
2019-04-25T22:16:17.134Z,64.24
2019-04-25T22:18:43.181Z,64.32
2019-04-25T22:21:09.280Z,64.27
2019-04-25T22:23:35.349Z,63.98
2019-04-25T22:26:01.466Z,64.29
2019-04-25T22:28:28.351Z,64.17
2019-04-25T22:30:57.715Z,63.89
2019-04-25T22:33:34.028Z,63.65
2019-04-25T22:36:16.412Z,63.21
2019-04-25T22:38:42.192Z,63.44
2019-04-25T22:41:08.083Z,63.39
2019-04-25T22:43:35.970Z,63.35
2019-04-25T22:46:02.160Z,63.31
2019-04-25T22:48:46.639Z,63.12
2019-04-25T22:51:12.432Z,63.01
2019-04-25T22:53:38.317Z,62.76
2019-04-25T22:56:04.107Z,62.56
2019-04-25T22:58:30.256Z,62.54
2019-04-25T23:00:56.279Z,62.33
2019-04-25T23:03:23.985Z,62.34
2019-04-25T23:05:51.721Z,62.29
2019-04-25T23:08:17.705Z,62.33
2019-04-25T23:10:43.498Z,62.16
2019-04-25T23:13:09.273Z,62.45
2019-04-25T23:15:35.064Z,62.35
2019-04-25T23:18:01.043Z,62.49
2019-04-25T23:20:26.842Z,62.48
2019-04-25T23:22:52.633Z,62.76
2019-04-25T23:25:20.645Z,63.04
2019-04-25T23:27:51.124Z,63.38
2019-04-25T23:30:19.039Z,63.41
2019-04-25T23:32:44.817Z,63.80
2019-04-25T23:35:24.207Z,63.75
2019-04-25T23:37:38.520Z,64.41
2019-04-25T23:40:05.148Z,64.53
2019-04-25T23:42:32.036Z,65.11
2019-04-25T23:44:58.115Z,65.31
2019-04-25T23:47:23.902Z,65.28
2019-04-25T23:49:49.707Z,65.84
2019-04-25T23:52:15.699Z,65.98
2019-04-25T23:54:41.523Z,66.22
2019-04-25T23:57:08.249Z,66.04
2019-04-25T23:59:34.919Z,66.15
